Аэропорт: Сургут. Сургут

ICAO: USRR

METAR:
2018/07/16 20:00
USRR 162000Z 31001MPS CAVOK 15/10 Q1016 R07/CLRD60 NOSIG RMK QFE757
METAR:
2018/07/16 18:24
TAF TAF USRR 161655Z 1618/1718 20003MPS CAVOK